PWSweather.com
Personal Weather Stations
Station Observations
OAK1E
Piedmont Ave District, Oakland, CA 94611

Piedmont Ave DistrictOakland, CA 94611

Lat: 37.832205, Lon: -122.250229

Elevation: 176

Station Type: Davis Vantage Pro 2

http://www.mayacamaswx.com/Oakland1E/Oakland1E.htm

Latest ConditionsUpdated 1:10:00 PM PDT Thursday, Aug 25, 2016
Currently Today's Max Today's Min Today's Average
Temperature 64.5°F18.1°C 64.5°F18.1°C 54.7°F12.6°C 56.6°F13.7°C
Dew Point 58.1°F14.5°C 58.1°F14.5°C 53.0°F11.7°C 54.4°F12.4°C
Winds Calm Calm Calm SSECalm SSE - Calm Calm
Wind Gusts -- -- - -
Humidity 80% 95% 80% 92%
Pressure 29.95 in1014.2 mb 29.99 in1015.6 mb 29.95 in1014.2 mb -
Hour Temp Dew Point Humidity Winds Wind Gusts Pressure Precip Precip Rate Daily Precip Total
01:10 PM 64.5°F18.1°C 58.1°F14.5°C 80% Calm Calm -- 29.95 in1014.2 mb - 0.00 in0.0 mm 0.00 in0.0 mm
01:00 PM 64.3°F17.9°C 58.0°F14.4°C 80% Calm Calm -- 29.95 in1014.2 mb - 0.00 in0.0 mm 0.00 in0.0 mm
12:50 PM 63.1°F17.3°C 57.9°F14.4°C 83% Calm Calm -- 29.95 in1014.2 mb - 0.00 in0.0 mm 0.00 in0.0 mm
12:40 PM 62.3°F16.8°C 56.7°F13.7°C 82% Calm Calm -- 29.96 in1014.6 mb - 0.00 in0.0 mm 0.00 in0.0 mm
12:30 PM 61.6°F16.4°C 57.0°F13.9°C 85% Calm Calm -- 29.96 in1014.6 mb - 0.00 in0.0 mm 0.00 in0.0 mm
12:20 PM 60.6°F15.9°C 56.4°F13.6°C 86% Calm Calm -- 29.96 in1014.6 mb - 0.00 in0.0 mm 0.00 in0.0 mm
12:10 PM 60.3°F15.7°C 56.1°F13.4°C 86% Calm Calm -- 29.97 in1014.9 mb - 0.00 in0.0 mm 0.00 in0.0 mm
12:00 PM 60.1°F15.6°C 55.9°F13.3°C 86% Calm Calm -- 29.97 in1014.9 mb - 0.00 in0.0 mm 0.00 in0.0 mm
11:50 AM 59.7°F15.4°C 56.1°F13.4°C 88% Calm Calm -- 29.97 in1014.9 mb - 0.00 in0.0 mm 0.00 in0.0 mm
11:40 AM 59.0°F15.0°C 55.8°F13.2°C 89% Calm Calm -- 29.97 in1014.9 mb - 0.00 in0.0 mm 0.00 in0.0 mm
11:30 AM 58.7°F14.8°C 55.8°F13.2°C 90% Calm Calm -- 29.97 in1014.9 mb - 0.00 in0.0 mm 0.00 in0.0 mm
11:20 AM 58.3°F14.6°C 55.4°F13.0°C 90% Calm Calm -- 29.98 in1015.2 mb - 0.00 in0.0 mm 0.00 in0.0 mm
11:10 AM 58.2°F14.6°C 55.6°F13.1°C 91% Calm Calm -- 29.98 in1015.2 mb - 0.00 in0.0 mm 0.00 in0.0 mm
11:00 AM 57.9°F14.4°C 55.3°F12.9°C 91% Calm Calm -- 29.98 in1015.2 mb - 0.00 in0.0 mm 0.00 in0.0 mm
10:50 AM 58.0°F14.4°C 55.4°F13.0°C 91% Calm Calm -- 29.98 in1015.2 mb - 0.00 in0.0 mm 0.00 in0.0 mm
10:40 AM 57.8°F14.3°C 55.5°F13.1°C 92% Calm Calm -- 29.98 in1015.2 mb - 0.00 in0.0 mm 0.00 in0.0 mm
10:30 AM 57.6°F14.2°C 55.6°F13.1°C 93% Calm Calm -- 29.98 in1015.2 mb - 0.00 in0.0 mm 0.00 in0.0 mm
10:20 AM 57.5°F14.2°C 55.5°F13.1°C 93% Calm Calm -- 29.98 in1015.2 mb - 0.00 in0.0 mm 0.00 in0.0 mm
10:10 AM 57.2°F14.0°C 55.2°F12.9°C 93% Calm Calm -- 29.98 in1015.2 mb - 0.00 in0.0 mm 0.00 in0.0 mm
10:00 AM 56.9°F13.8°C 54.9°F12.7°C 93% Calm Calm -- 29.98 in1015.2 mb - 0.00 in0.0 mm 0.00 in0.0 mm
09:50 AM 56.8°F13.8°C 55.0°F12.8°C 94% Calm Calm -- 29.98 in1015.2 mb - 0.00 in0.0 mm 0.00 in0.0 mm
09:40 AM 56.4°F13.6°C 54.7°F12.6°C 94% Calm Calm -- 29.98 in1015.2 mb - 0.00 in0.0 mm 0.00 in0.0 mm
09:30 AM 56.2°F13.4°C 54.5°F12.5°C 94% Calm Calm -- 29.98 in1015.2 mb - 0.00 in0.0 mm 0.00 in0.0 mm
09:20 AM 56.2°F13.4°C 54.5°F12.5°C 94% Calm Calm -- 29.98 in1015.2 mb - 0.00 in0.0 mm 0.00 in0.0 mm
09:10 AM 56.1°F13.4°C 54.4°F12.4°C 94% Calm Calm -- 29.98 in1015.2 mb - 0.00 in0.0 mm 0.00 in0.0 mm
09:00 AM 55.9°F13.3°C 54.2°F12.3°C 94% Calm Calm -- 29.98 in1015.2 mb - 0.00 in0.0 mm 0.00 in0.0 mm
08:50 AM 55.8°F13.2°C 54.1°F12.3°C 94% Calm Calm -- 29.98 in1015.2 mb - 0.00 in0.0 mm 0.00 in0.0 mm
08:40 AM 55.6°F13.1°C 53.9°F12.2°C 94% Calm Calm -- 29.98 in1015.2 mb - 0.00 in0.0 mm 0.00 in0.0 mm
08:30 AM 55.5°F13.1°C 53.8°F12.1°C 94% Calm Calm -- 29.98 in1015.2 mb - 0.00 in0.0 mm 0.00 in0.0 mm
08:20 AM 55.4°F13.0°C 53.7°F12.1°C 94% Calm Calm -- 29.99 in1015.6 mb - 0.00 in0.0 mm 0.00 in0.0 mm
08:10 AM 55.3°F12.9°C 53.8°F12.1°C 95% Calm Calm -- 29.98 in1015.2 mb - 0.00 in0.0 mm 0.00 in0.0 mm
08:00 AM 55.0°F12.8°C 53.3°F11.8°C 94% Calm Calm -- 29.98 in1015.2 mb - 0.00 in0.0 mm 0.00 in0.0 mm
07:50 AM 54.9°F12.7°C 53.2°F11.8°C 94% Calm Calm -- 29.98 in1015.2 mb - 0.00 in0.0 mm 0.00 in0.0 mm
07:40 AM 54.8°F12.7°C 53.1°F11.7°C 94% Calm Calm -- 29.98 in1015.2 mb - 0.00 in0.0 mm 0.00 in0.0 mm
07:30 AM 54.7°F12.6°C 53.1°F11.7°C 94% Calm Calm -- 29.97 in1014.9 mb - 0.00 in0.0 mm 0.00 in0.0 mm
07:20 AM 54.7°F12.6°C 53.0°F11.7°C 94% Calm Calm -- 29.97 in1014.9 mb - 0.00 in0.0 mm 0.00 in0.0 mm
07:10 AM 54.7°F12.6°C 53.0°F11.7°C 94% Calm Calm -- 29.97 in1014.9 mb - 0.00 in0.0 mm 0.00 in0.0 mm
07:00 AM 54.7°F12.6°C 53.0°F11.7°C 94% Calm Calm -- 29.97 in1014.9 mb - 0.00 in0.0 mm 0.00 in0.0 mm
06:50 AM 54.7°F12.6°C 53.0°F11.7°C 94% Calm Calm -- 29.97 in1014.9 mb - 0.00 in0.0 mm 0.00 in0.0 mm
06:40 AM 54.8°F12.7°C 53.1°F11.7°C 94% Calm Calm -- 29.97 in1014.9 mb - 0.00 in0.0 mm 0.00 in0.0 mm
06:30 AM 54.9°F12.7°C 53.2°F11.8°C 94% Calm Calm -- 29.96 in1014.6 mb - 0.00 in0.0 mm 0.00 in0.0 mm
06:20 AM 54.8°F12.7°C 53.1°F11.7°C 94% Calm Calm -- 29.96 in1014.6 mb - 0.00 in0.0 mm 0.00 in0.0 mm
06:10 AM 54.8°F12.7°C 53.1°F11.7°C 94% Calm Calm -- 29.96 in1014.6 mb - 0.00 in0.0 mm 0.00 in0.0 mm
06:00 AM 54.9°F12.7°C 53.2°F11.8°C 94% Calm Calm -- 29.96 in1014.6 mb - 0.00 in0.0 mm 0.00 in0.0 mm
05:50 AM 54.9°F12.7°C 53.2°F11.8°C 94% Calm Calm -- 29.96 in1014.6 mb - 0.00 in0.0 mm 0.00 in0.0 mm
05:40 AM 55.0°F12.8°C 53.0°F11.7°C 93% Calm Calm -- 29.95 in1014.2 mb - 0.00 in0.0 mm 0.00 in0.0 mm
05:30 AM 55.1°F12.8°C 53.1°F11.7°C 93% Calm Calm -- 29.95 in1014.2 mb - 0.00 in0.0 mm 0.00 in0.0 mm
05:20 AM 55.1°F12.8°C 53.2°F11.8°C 93% Calm Calm -- 29.95 in1014.2 mb - 0.00 in0.0 mm 0.00 in0.0 mm
05:10 AM 55.1°F12.8°C 53.1°F11.7°C 93% Calm Calm -- 29.95 in1014.2 mb - 0.00 in0.0 mm 0.00 in0.0 mm
05:00 AM 55.2°F12.9°C 53.2°F11.8°C 93% Calm Calm -- 29.95 in1014.2 mb - 0.00 in0.0 mm 0.00 in0.0 mm
04:50 AM 55.2°F12.9°C 53.2°F11.8°C 93% Calm Calm -- 29.95 in1014.2 mb - 0.00 in0.0 mm 0.00 in0.0 mm
04:40 AM 55.1°F12.8°C 53.1°F11.7°C 93% Calm Calm -- 29.95 in1014.2 mb - 0.00 in0.0 mm 0.00 in0.0 mm
04:30 AM 55.2°F12.9°C 53.2°F11.8°C 93% Calm Calm -- 29.95 in1014.2 mb - 0.00 in0.0 mm 0.00 in0.0 mm
04:20 AM 55.3°F12.9°C 53.3°F11.8°C 93% Calm Calm -- 29.95 in1014.2 mb - 0.00 in0.0 mm 0.00 in0.0 mm
04:10 AM 55.5°F13.1°C 53.5°F11.9°C 93% Calm Calm -- 29.96 in1014.6 mb - 0.00 in0.0 mm 0.00 in0.0 mm
04:00 AM 55.6°F13.1°C 53.6°F12.0°C 93% Calm Calm -- 29.95 in1014.2 mb - 0.00 in0.0 mm 0.00 in0.0 mm
03:50 AM 55.7°F13.2°C 53.7°F12.1°C 93% Calm Calm -- 29.96 in1014.6 mb - 0.00 in0.0 mm 0.00 in0.0 mm
03:40 AM 55.7°F13.2°C 53.7°F12.1°C 93% Calm Calm -- 29.96 in1014.6 mb - 0.00 in0.0 mm 0.00 in0.0 mm
03:30 AM 55.7°F13.2°C 53.7°F12.1°C 93% Calm Calm -- 29.96 in1014.6 mb - 0.00 in0.0 mm 0.00 in0.0 mm
03:20 AM 55.7°F13.2°C 53.7°F12.1°C 93% Calm Calm -- 29.96 in1014.6 mb - 0.00 in0.0 mm 0.00 in0.0 mm
03:10 AM 55.7°F13.2°C 53.7°F12.1°C 93% Calm Calm -- 29.97 in1014.9 mb - 0.00 in0.0 mm 0.00 in0.0 mm
03:00 AM 55.7°F13.2°C 53.7°F12.1°C 93% Calm Calm -- 29.97 in1014.9 mb - 0.00 in0.0 mm 0.00 in0.0 mm
02:50 AM 55.8°F13.2°C 53.8°F12.1°C 93% Calm Calm -- 29.96 in1014.6 mb - 0.00 in0.0 mm 0.00 in0.0 mm
02:40 AM 55.9°F13.3°C 53.9°F12.2°C 93% Calm Calm -- 29.96 in1014.6 mb - 0.00 in0.0 mm 0.00 in0.0 mm
02:30 AM 56.0°F13.3°C 54.0°F12.2°C 93% Calm Calm -- 29.96 in1014.6 mb - 0.00 in0.0 mm 0.00 in0.0 mm
02:20 AM 56.1°F13.4°C 54.1°F12.3°C 93% Calm Calm -- 29.96 in1014.6 mb - 0.00 in0.0 mm 0.00 in0.0 mm
02:10 AM 56.4°F13.6°C 54.4°F12.4°C 93% Calm Calm -- 29.96 in1014.6 mb - 0.00 in0.0 mm 0.00 in0.0 mm
02:00 AM 56.4°F13.6°C 54.7°F12.6°C 94% Calm Calm -- 29.97 in1014.9 mb - 0.00 in0.0 mm 0.00 in0.0 mm
01:50 AM 56.4°F13.6°C 54.7°F12.6°C 94% Calm Calm -- 29.97 in1014.9 mb - 0.00 in0.0 mm 0.00 in0.0 mm
01:40 AM 56.4°F13.6°C 54.7°F12.6°C 94% Calm Calm -- 29.97 in1014.9 mb - 0.00 in0.0 mm 0.00 in0.0 mm
01:30 AM 56.3°F13.5°C 54.6°F12.6°C 94% Calm Calm -- 29.97 in1014.9 mb - 0.00 in0.0 mm 0.00 in0.0 mm
01:20 AM 56.2°F13.4°C 54.5°F12.5°C 94% Calm Calm -- 29.98 in1015.2 mb - 0.00 in0.0 mm 0.00 in0.0 mm
01:10 AM 56.3°F13.5°C 54.6°F12.6°C 94% Calm Calm -- 29.98 in1015.2 mb - 0.00 in0.0 mm 0.00 in0.0 mm
01:00 AM 56.3°F13.5°C 54.3°F12.4°C 93% Calm Calm -- 29.98 in1015.2 mb - 0.00 in0.0 mm 0.00 in0.0 mm
12:50 AM 56.4°F13.6°C 54.4°F12.4°C 93% Calm Calm -- 29.98 in1015.2 mb - 0.00 in0.0 mm 0.00 in0.0 mm
12:40 AM 56.5°F13.6°C 54.5°F12.5°C 93% Calm Calm -- 29.98 in1015.2 mb - 0.00 in0.0 mm 0.00 in0.0 mm
12:30 AM 56.5°F13.6°C 54.5°F12.5°C 93% Calm Calm -- 29.99 in1015.6 mb - 0.00 in0.0 mm 0.00 in0.0 mm
12:20 AM 56.5°F13.6°C 54.5°F12.5°C 93% Calm Calm -- 29.99 in1015.6 mb - 0.00 in0.0 mm 0.00 in0.0 mm
12:10 AM 56.6°F13.7°C 54.6°F12.6°C 93% Calm Calm -- 29.99 in1015.6 mb - 0.00 in0.0 mm 0.00 in0.0 mm
12:00 AM 56.6°F13.7°C 54.6°F12.6°C 93% Calm Calm -- 29.99 in1015.6 mb - 0.00 in0.0 mm 0.00 in0.0 mm